Time;durP1;ratioP1;P1;durP2;ratioP2;P2;SDS_P1;SDS_P2;PMS_P1;PMS_P2;Temp;Humidity;BMP_temperature;BMP_pressure;BME280_temperature;BME280_humidity;BME280_pressure;Samples;Min_cycle;Max_cycle;Signal;HPM_P1;HPM_P2
2022/05/31 00:01:54;;;;;;;;;;;21.80;90.50;;;;;;4867800;29;19928;-63
2022/05/31 00:04:21;;;;;;;;;;;21.90;90.70;;;;;;4853635;29;19940;-59
2022/05/31 00:06:48;;;;;;;;;;;21.90;90.60;;;;;;4858042;29;19933;-62
2022/05/31 00:09:15;;;;;;;;;;;21.90;91.00;;;;;;4849561;29;19928;-62
2022/05/31 00:11:43;;;;;;;;;;;21.80;90.70;;;;;;4875330;29;19928;-63
2022/05/31 00:14:11;;;;;;;;;;;21.80;90.70;;;;;;4848125;29;19928;-62
2022/05/31 00:16:38;;;;;;;;;;;21.80;90.70;;;;;;4845127;29;19932;-60
2022/05/31 00:19:06;;;;;;;;;;;21.80;90.70;;;;;;4871576;29;19939;-62
2022/05/31 00:21:49;;;;;;;;;;;21.70;90.70;;;;;;4856139;29;19932;-62
2022/05/31 00:24:18;;;;;;;;;;;21.80;90.70;;;;;;4844278;29;19940;-63
2022/05/31 00:26:45;;;;;;;;;;;21.70;90.60;;;;;;4843864;29;19955;-63
2022/05/31 00:29:13;;;;;;;;;;;21.70;90.70;;;;;;4843867;29;19988;-63
2022/05/31 00:31:41;;;;;;;;;;;21.70;90.70;;;;;;4861964;29;19932;-60
2022/05/31 00:34:09;;;;;;;;;;;21.70;90.80;;;;;;4838890;29;19939;-62
2022/05/31 00:36:38;;;;;;;;;;;21.70;90.80;;;;;;4845834;29;19939;-59
2022/05/31 00:39:06;;;;;;;;;;;21.80;90.70;;;;;;4839361;29;19928;-62
2022/05/31 00:41:34;;;;;;;;;;;21.80;90.70;;;;;;4856498;29;20353;-63
2022/05/31 00:44:06;;;;;;;;;;;21.70;90.60;;;;;;4862144;29;19928;-61
2022/05/31 00:46:33;;;;;;;;;;;21.80;90.60;;;;;;4846881;29;19932;-62
2022/05/31 00:49:02;;;;;;;;;;;21.80;90.60;;;;;;4840138;29;19940;-61
2022/05/31 00:51:36;;;;;;;;;;;21.80;90.60;;;;;;4843762;29;19932;-62
2022/05/31 00:54:05;;;;;;;;;;;21.70;90.60;;;;;;4836857;29;19940;-62
2022/05/31 00:56:32;;;;;;;;;;;21.80;90.90;;;;;;4839646;29;19955;-62
2022/05/31 00:59:12;;;;;;;;;;;21.80;90.60;;;;;;4838556;29;19932;-58
2022/05/31 01:01:41;;;;;;;;;;;21.70;90.70;;;;;;4855326;29;19931;-63
2022/05/31 01:04:09;;;;;;;;;;;21.70;90.60;;;;;;4849142;29;19932;-63
2022/05/31 01:06:36;;;;;;;;;;;21.70;90.60;;;;;;4863831;29;19928;-61
2022/05/31 01:09:04;;;;;;;;;;;21.70;90.50;;;;;;4845547;29;19932;-61
2022/05/31 01:11:39;;;;;;;;;;;21.70;90.50;;;;;;4861397;29;19932;-59
2022/05/31 01:14:30;;;;;;;;;;;21.70;90.50;;;;;;4843144;29;19932;-63
2022/05/31 01:17:07;;;;;;;;;;;21.70;90.50;;;;;;4845766;29;20305;-63
2022/05/31 01:19:56;;;;;;;;;;;21.70;90.50;;;;;;4852710;29;19939;-63
2022/05/31 01:22:29;;;;;;;;;;;21.70;90.60;;;;;;4825065;29;19929;-63
2022/05/31 01:24:56;;;;;;;;;;;21.60;90.60;;;;;;4836201;29;20392;-62
2022/05/31 01:27:35;;;;;;;;;;;21.60;90.60;;;;;;4867583;29;19931;-60
2022/05/31 01:30:05;;;;;;;;;;;21.60;90.70;;;;;;4832158;29;19939;-62
2022/05/31 01:32:35;;;;;;;;;;;21.60;90.70;;;;;;4849921;29;19929;-59
2022/05/31 01:35:13;;;;;;;;;;;21.60;90.60;;;;;;4841564;29;19937;-62
2022/05/31 01:37:45;;;;;;;;;;;21.60;90.60;;;;;;4852086;29;19932;-62
2022/05/31 01:40:16;;;;;;;;;;;21.60;90.60;;;;;;4843923;29;19966;-62
2022/05/31 01:42:45;;;;;;;;;;;21.60;90.60;;;;;;4825671;29;19939;-61
2022/05/31 01:45:26;;;;;;;;;;;21.60;90.60;;;;;;4838643;29;20312;-63
2022/05/31 01:47:56;;;;;;;;;;;21.60;90.70;;;;;;4840901;29;20504;-63
2022/05/31 01:50:24;;;;;;;;;;;21.60;90.60;;;;;;4844298;29;20882;-63
2022/05/31 01:52:52;;;;;;;;;;;21.60;90.60;;;;;;4837743;29;19932;-62
2022/05/31 01:55:21;;;;;;;;;;;21.60;90.60;;;;;;4838253;29;19939;-62
2022/05/31 01:57:53;;;;;;;;;;;21.60;90.60;;;;;;4836043;29;19963;-63
2022/05/31 02:00:21;;;;;;;;;;;21.60;90.70;;;;;;4823052;29;19935;-63
2022/05/31 02:02:49;;;;;;;;;;;21.60;90.70;;;;;;4835463;29;19939;-62
2022/05/31 02:05:17;;;;;;;;;;;21.60;90.70;;;;;;4844550;29;19928;-63
2022/05/31 02:07:59;;;;;;;;;;;21.50;90.70;;;;;;4832082;29;19943;-63
2022/05/31 02:10:29;;;;;;;;;;;21.50;90.70;;;;;;4848386;29;19943;-61
2022/05/31 02:12:57;;;;;;;;;;;21.60;90.80;;;;;;4835362;29;20012;-61
2022/05/31 02:15:25;;;;;;;;;;;21.60;90.70;;;;;;4858527;29;20388;-62
2022/05/31 02:18:13;;;;;;;;;;;21.60;90.70;;;;;;4828313;29;19936;-63
2022/05/31 02:20:55;;;;;;;;;;;21.60;90.70;;;;;;4869001;29;19984;-63
2022/05/31 02:23:22;;;;;;;;;;;21.50;90.70;;;;;;4845414;29;19933;-61
2022/05/31 02:25:49;;;;;;;;;;;21.50;90.70;;;;;;4857217;29;19932;-62
2022/05/31 02:28:17;;;;;;;;;;;21.50;90.80;;;;;;4855581;29;19928;-63
2022/05/31 02:30:44;;;;;;;;;;;21.50;90.80;;;;;;4864426;29;19932;-60
2022/05/31 02:33:12;;;;;;;;;;;21.60;90.70;;;;;;4867484;29;19928;-63
2022/05/31 02:35:39;;;;;;;;;;;21.50;90.70;;;;;;4865849;29;20284;-62
2022/05/31 02:38:06;;;;;;;;;;;21.50;90.70;;;;;;4851240;29;19939;-61
2022/05/31 02:40:34;;;;;;;;;;;21.50;90.70;;;;;;4856807;29;19932;-61
2022/05/31 02:43:01;;;;;;;;;;;21.50;90.70;;;;;;4836943;29;19929;-61
2022/05/31 02:45:29;;;;;;;;;;;21.50;90.70;;;;;;4850259;29;19939;-61
2022/05/31 02:47:56;;;;;;;;;;;21.50;90.70;;;;;;4838449;29;19928;-62
2022/05/31 02:50:24;;;;;;;;;;;21.50;90.70;;;;;;4853982;29;19958;-62
2022/05/31 02:52:51;;;;;;;;;;;21.50;90.70;;;;;;4854447;29;19943;-62
2022/05/31 02:55:18;;;;;;;;;;;21.50;90.70;;;;;;4854368;29;20412;-62
2022/05/31 02:58:04;;;;;;;;;;;21.50;90.70;;;;;;4861076;29;19959;-62
2022/05/31 03:00:49;;;;;;;;;;;21.50;90.70;;;;;;4851414;29;19939;-63
2022/05/31 03:03:35;;;;;;;;;;;21.50;90.70;;;;;;4853927;29;19936;-62
2022/05/31 03:06:22;;;;;;;;;;;21.50;90.70;;;;;;4858103;29;19932;-60
2022/05/31 03:08:59;;;;;;;;;;;21.50;90.70;;;;;;4866750;29;19933;-64
2022/05/31 03:11:32;;;;;;;;;;;21.50;90.90;;;;;;4877780;29;20010;-62
2022/05/31 03:14:02;;;;;;;;;;;21.40;90.90;;;;;;4859745;29;19929;-60
2022/05/31 03:16:31;;;;;;;;;;;21.40;91.00;;;;;;4885280;29;19932;-62
2022/05/31 03:19:02;;;;;;;;;;;21.40;91.00;;;;;;4869229;29;19931;-62
2022/05/31 03:21:39;;;;;;;;;;;21.30;91.10;;;;;;4885663;29;19938;-62
2022/05/31 03:24:12;;;;;;;;;;;21.40;91.10;;;;;;4854848;29;19932;-61
2022/05/31 03:26:41;;;;;;;;;;;21.30;91.00;;;;;;4874283;29;19946;-61
2022/05/31 03:29:09;;;;;;;;;;;21.40;91.00;;;;;;4875942;29;19932;-62
2022/05/31 03:31:37;;;;;;;;;;;21.40;91.00;;;;;;4855708;29;20331;-59
2022/05/31 03:34:04;;;;;;;;;;;21.30;91.00;;;;;;4865247;29;19932;-60
2022/05/31 03:36:31;;;;;;;;;;;21.40;91.10;;;;;;4852649;29;19928;-62
2022/05/31 03:39:06;;;;;;;;;;;21.40;91.00;;;;;;4855472;29;19936;-62
2022/05/31 03:41:34;;;;;;;;;;;21.40;90.90;;;;;;4852327;29;19936;-63
2022/05/31 03:44:02;;;;;;;;;;;21.30;90.90;;;;;;4874829;29;19935;-60
2022/05/31 03:46:41;;;;;;;;;;;21.30;91.00;;;;;;4883303;29;20269;-61
2022/05/31 03:49:35;;;;;;;;;;;21.30;91.00;;;;;;4878249;29;20335;-61
2022/05/31 03:52:05;;;;;;;;;;;21.30;91.00;;;;;;4859487;29;19936;-63
2022/05/31 03:54:42;;;;;;;;;;;21.30;90.90;;;;;;4857009;29;19939;-59
2022/05/31 03:57:14;;;;;;;;;;;21.30;90.90;;;;;;4867872;29;19931;-60
2022/05/31 03:59:41;;;;;;;;;;;21.30;90.90;;;;;;4850054;29;20397;-62
2022/05/31 04:02:08;;;;;;;;;;;21.30;91.10;;;;;;4863332;29;20685;-60
2022/05/31 04:04:38;;;;;;;;;;;21.30;91.10;;;;;;4865575;29;20310;-63
2022/05/31 04:07:05;;;;;;;;;;;21.30;91.20;;;;;;4860217;29;20414;-60
2022/05/31 04:09:33;;;;;;;;;;;21.30;91.20;;;;;;4854355;29;19936;-61
2022/05/31 04:12:03;;;;;;;;;;;21.30;91.20;;;;;;4856894;29;19931;-64
2022/05/31 04:14:57;;;;;;;;;;;21.30;91.20;;;;;;4852395;29;19931;-63
2022/05/31 04:17:24;;;;;;;;;;;21.30;91.30;;;;;;4866284;29;19932;-62
2022/05/31 04:19:52;;;;;;;;;;;21.30;91.30;;;;;;4856090;29;19939;-60
2022/05/31 04:22:19;;;;;;;;;;;21.30;91.30;;;;;;4865511;29;19931;-61
2022/05/31 04:24:53;;;;;;;;;;;21.40;91.30;;;;;;4859278;29;19938;-62
2022/05/31 04:27:39;;;;;;;;;;;21.30;91.30;;;;;;4871357;29;19940;-62
2022/05/31 04:30:44;;;;;;;;;;;21.40;91.30;;;;;;4860328;29;20302;-63
2022/05/31 04:33:30;;;;;;;;;;;21.30;91.30;;;;;;4873752;29;19932;-61
2022/05/31 04:35:58;;;;;;;;;;;21.30;91.30;;;;;;4847489;29;19932;-61
2022/05/31 04:38:26;;;;;;;;;;;21.30;91.30;;;;;;4871046;29;19932;-62
2022/05/31 04:40:58;;;;;;;;;;;21.30;91.30;;;;;;4858904;29;19936;-60
2022/05/31 04:43:44;;;;;;;;;;;21.40;91.30;;;;;;4852479;29;19932;-62
2022/05/31 04:46:17;;;;;;;;;;;21.40;91.30;;;;;;4858796;29;20324;-62
2022/05/31 04:49:02;;;;;;;;;;;21.30;91.20;;;;;;4856009;29;19999;-60
2022/05/31 04:51:32;;;;;;;;;;;21.40;91.30;;;;;;4861105;29;19936;-61
2022/05/31 04:54:01;;;;;;;;;;;21.40;91.30;;;;;;4852064;29;19932;-62
2022/05/31 04:56:42;;;;;;;;;;;21.40;91.30;;;;;;4865496;29;19931;-60
2022/05/31 04:59:11;;;;;;;;;;;21.40;91.30;;;;;;4855144;29;19978;-61
2022/05/31 05:01:40;;;;;;;;;;;21.40;91.20;;;;;;4849227;29;20039;-63
2022/05/31 05:04:12;;;;;;;;;;;21.40;91.20;;;;;;4850052;29;19936;-63
2022/05/31 05:06:46;;;;;;;;;;;21.40;91.20;;;;;;4855170;29;19954;-62
2022/05/31 05:09:16;;;;;;;;;;;21.40;91.20;;;;;;4849971;29;19932;-62
2022/05/31 05:12:09;;;;;;;;;;;21.40;91.20;;;;;;4877201;29;19932;-59
2022/05/31 05:14:38;;;;;;;;;;;21.40;91.20;;;;;;4854436;29;19936;-62
2022/05/31 05:17:11;;;;;;;;;;;21.50;91.20;;;;;;4878549;29;19931;-58
2022/05/31 05:19:43;;;;;;;;;;;21.50;91.10;;;;;;4855037;29;19938;-63
2022/05/31 05:22:10;;;;;;;;;;;21.50;91.20;;;;;;4858475;29;19938;-57
2022/05/31 05:24:38;;;;;;;;;;;21.50;91.00;;;;;;4855890;29;19928;-59
2022/05/31 05:27:23;;;;;;;;;;;21.50;91.10;;;;;;4877341;29;19939;-61
2022/05/31 05:32:40;;;;;;;;;;;21.40;91.10;;;;;;4868595;29;19936;-59
2022/05/31 05:35:13;;;;;;;;;;;21.40;91.10;;;;;;4857605;29;20637;-61
2022/05/31 05:37:45;;;;;;;;;;;21.50;91.20;;;;;;4849417;29;19935;-63
2022/05/31 05:40:15;;;;;;;;;;;21.40;91.20;;;;;;4855135;29;20364;-60
2022/05/31 05:42:52;;;;;;;;;;;21.50;91.20;;;;;;4875901;29;20791;-61
2022/05/31 05:45:32;;;;;;;;;;;21.50;91.20;;;;;;4855889;29;19928;-62
2022/05/31 05:47:59;;;;;;;;;;;21.40;91.20;;;;;;4873556;29;19931;-61
2022/05/31 05:50:33;;;;;;;;;;;21.40;91.20;;;;;;4862022;29;19935;-60
2022/05/31 05:53:07;;;;;;;;;;;21.40;91.20;;;;;;4879774;29;20368;-60
2022/05/31 05:55:53;;;;;;;;;;;21.40;91.30;;;;;;4870680;29;19928;-59
2022/05/31 05:58:49;;;;;;;;;;;21.50;91.60;;;;;;4810088;29;19933;-61
2022/05/31 06:01:51;;;;;;;;;;;21.50;91.50;;;;;;4838742;29;19939;-63
2022/05/31 06:05:03;;;;;;;;;;;21.60;91.70;;;;;;4869779;29;19948;-59
2022/05/31 06:07:32;;;;;;;;;;;21.60;91.70;;;;;;4865721;29;19931;-60
2022/05/31 06:10:01;;;;;;;;;;;21.60;91.40;;;;;;4865269;29;19936;-61
2022/05/31 06:12:31;;;;;;;;;;;21.60;91.40;;;;;;4871936;29;19931;-62
2022/05/31 06:15:08;;;;;;;;;;;21.60;91.40;;;;;;4864950;29;19928;-57
2022/05/31 06:17:37;;;;;;;;;;;21.60;91.40;;;;;;4883505;29;20590;-60
2022/05/31 06:20:06;;;;;;;;;;;21.60;91.40;;;;;;4864331;29;19928;-59
2022/05/31 06:22:35;;;;;;;;;;;21.60;91.30;;;;;;4870746;29;19948;-64
2022/05/31 06:25:12;;;;;;;;;;;21.50;91.30;;;;;;4851880;29;19939;-64
2022/05/31 06:27:54;;;;;;;;;;;21.50;91.30;;;;;;4854107;29;19938;-60
2022/05/31 06:30:23;;;;;;;;;;;21.50;91.30;;;;;;4840967;29;20041;-65
2022/05/31 06:32:50;;;;;;;;;;;21.50;91.50;;;;;;4851625;29;19928;-64
2022/05/31 06:35:18;;;;;;;;;;;21.50;91.50;;;;;;4866314;29;19938;-65
2022/05/31 06:37:59;;;;;;;;;;;21.50;91.60;;;;;;4851787;29;20353;-65
2022/05/31 06:40:27;;;;;;;;;;;21.60;91.70;;;;;;4846166;29;19936;-65
2022/05/31 06:42:58;;;;;;;;;;;21.60;91.70;;;;;;4863266;29;19948;-63
2022/05/31 06:45:40;;;;;;;;;;;21.60;91.70;;;;;;4872067;29;19935;-65
2022/05/31 06:48:28;;;;;;;;;;;21.60;91.70;;;;;;4871371;29;19935;-66
2022/05/31 06:51:14;;;;;;;;;;;21.50;91.80;;;;;;4875332;29;20468;-64
2022/05/31 06:57:22;;;;;;;;;;;21.50;93.20;;;;;;4867936;29;19932;-65
2022/05/31 06:59:58;;;;;;;;;;;21.50;93.30;;;;;;4854308;29;19936;-65
2022/05/31 07:02:27;;;;;;;;;;;21.50;94.50;;;;;;4854168;29;19935;-64
2022/05/31 07:04:54;;;;;;;;;;;21.50;95.30;;;;;;4856688;29;20434;-65
2022/05/31 07:07:22;;;;;;;;;;;21.50;95.60;;;;;;4868819;29;20021;-61
2022/05/31 07:09:49;;;;;;;;;;;21.50;95.90;;;;;;4870201;29;20355;-67
2022/05/31 07:12:37;;;;;;;;;;;21.40;97.20;;;;;;4827645;29;20392;-65
2022/05/31 07:15:25;;;;;;;;;;;21.50;99.80;;;;;;4866373;29;19928;-66
2022/05/31 07:18:12;;;;;;;;;;;21.50;99.90;;;;;;4871876;29;20402;-63
2022/05/31 07:20:39;;;;;;;;;;;21.50;99.70;;;;;;4854224;29;19951;-64
2022/05/31 07:23:06;;;;;;;;;;;21.60;98.50;;;;;;4859170;29;19932;-65
2022/05/31 07:25:39;;;;;;;;;;;21.60;97.90;;;;;;4857815;29;20211;-61
2022/05/31 07:28:08;;;;;;;;;;;21.60;97.40;;;;;;4857225;29;19932;-60
2022/05/31 07:30:38;;;;;;;;;;;21.60;97.00;;;;;;4857212;29;20331;-64
2022/05/31 07:33:14;;;;;;;;;;;21.60;96.70;;;;;;4847478;29;19932;-67
2022/05/31 07:36:05;;;;;;;;;;;21.40;95.50;;;;;;4857610;29;19932;-63
2022/05/31 07:38:43;;;;;;;;;;;21.10;90.90;;;;;;4855292;29;20459;-66
2022/05/31 07:41:10;;;;;;;;;;;20.90;91.90;;;;;;4856390;29;19932;-66
2022/05/31 07:43:37;;;;;;;;;;;20.70;86.50;;;;;;4857422;29;19946;-63
2022/05/31 07:46:10;;;;;;;;;;;20.60;91.40;;;;;;4857236;29;19939;-66
2022/05/31 07:48:38;;;;;;;;;;;20.70;92.60;;;;;;4866478;29;19931;-64
2022/05/31 07:51:26;;;;;;;;;;;20.80;91.20;;;;;;4868985;29;19943;-64
2022/05/31 07:54:22;;;;;;;;;;;20.80;90.40;;;;;;4861377;29;19932;-64
2022/05/31 07:58:30;;;;;;;;;;;20.80;91.00;;;;;;4885974;29;19932;-63
2022/05/31 08:00:28;;;;;;;;;;;20.80;91.00;;;;;;4852487;29;19936;-59
2022/05/31 08:02:56;;;;;;;;;;;21.10;90.40;;;;;;4854452;29;20292;-62
2022/05/31 08:05:24;;;;;;;;;;;21.30;90.40;;;;;;4878776;29;19932;-65
2022/05/31 08:07:51;;;;;;;;;;;21.40;90.40;;;;;;4864965;29;19932;-64
2022/05/31 08:10:39;;;;;;;;;;;21.50;90.70;;;;;;4870504;29;20400;-62
2022/05/31 08:13:06;;;;;;;;;;;21.60;90.90;;;;;;4875260;29;19983;-62
2022/05/31 08:15:33;;;;;;;;;;;21.60;91.20;;;;;;4877484;29;19939;-62
2022/05/31 08:18:00;;;;;;;;;;;21.60;91.40;;;;;;4840073;29;19936;-60
2022/05/31 08:20:27;;;;;;;;;;;21.70;91.60;;;;;;4874033;29;19936;-63
2022/05/31 08:22:55;;;;;;;;;;;21.70;91.70;;;;;;4856910;29;19936;-64
2022/05/31 08:25:23;;;;;;;;;;;21.70;91.80;;;;;;4854743;29;19936;-64
2022/05/31 08:27:50;;;;;;;;;;;21.80;92.00;;;;;;4868187;29;20365;-63
2022/05/31 08:30:17;;;;;;;;;;;21.80;92.00;;;;;;4873966;29;19951;-62
2022/05/31 08:32:44;;;;;;;;;;;21.80;92.10;;;;;;4863743;29;20383;-62
2022/05/31 08:35:11;;;;;;;;;;;21.80;92.20;;;;;;4878771;29;20407;-64
2022/05/31 08:37:38;;;;;;;;;;;21.80;92.30;;;;;;4870059;29;20650;-64
2022/05/31 08:40:06;;;;;;;;;;;21.80;92.40;;;;;;4868233;29;19938;-66
2022/05/31 08:42:44;;;;;;;;;;;21.80;92.60;;;;;;4868783;29;19943;-62
2022/05/31 08:45:14;;;;;;;;;;;21.90;92.80;;;;;;4866861;29;19928;-62
2022/05/31 08:47:42;;;;;;;;;;;21.90;92.90;;;;;;4868772;29;20372;-61
2022/05/31 08:53:24;;;;;;;;;;;22.00;93.00;;;;;;4800997;29;19940;-63
2022/05/31 08:58:46;;;;;;;;;;;22.00;93.10;;;;;;4834740;29;20000;-64
2022/05/31 09:01:14;;;;;;;;;;;22.00;93.10;;;;;;4873254;29;20021;-64
2022/05/31 09:03:44;;;;;;;;;;;22.00;93.10;;;;;;4859506;29;19931;-63
2022/05/31 09:06:38;;;;;;;;;;;22.00;93.20;;;;;;4878807;29;19962;-63
2022/05/31 09:09:10;;;;;;;;;;;22.00;93.20;;;;;;4848214;29;22204;-66
2022/05/31 09:11:41;;;;;;;;;;;22.00;93.20;;;;;;4855760;29;19936;-66
2022/05/31 09:14:16;;;;;;;;;;;22.00;93.30;;;;;;4851424;29;20309;-63
2022/05/31 09:16:43;;;;;;;;;;;22.10;93.30;;;;;;4872624;29;20412;-66
2022/05/31 09:19:40;;;;;;;;;;;22.10;93.30;;;;;;4871868;29;20635;-65
2022/05/31 09:22:07;;;;;;;;;;;22.10;93.30;;;;;;4842778;29;19939;-68
2022/05/31 09:24:42;;;;;;;;;;;22.10;93.40;;;;;;4841339;29;20521;-66
2022/05/31 09:27:11;;;;;;;;;;;22.20;93.30;;;;;;4858774;29;19943;-64
2022/05/31 09:29:57;;;;;;;;;;;22.10;93.40;;;;;;4874435;29;19932;-69
2022/05/31 09:32:31;;;;;;;;;;;22.20;93.40;;;;;;4876997;29;20305;-68
2022/05/31 09:34:58;;;;;;;;;;;22.20;93.30;;;;;;4864698;29;19931;-67
2022/05/31 09:37:48;;;;;;;;;;;22.20;93.40;;;;;;4862898;29;19928;-65
2022/05/31 09:40:34;;;;;;;;;;;22.20;93.50;;;;;;4874776;29;20369;-66
2022/05/31 09:43:16;;;;;;;;;;;22.10;93.50;;;;;;4868284;29;19927;-68
2022/05/31 09:46:08;;;;;;;;;;;22.10;93.60;;;;;;4872012;29;19931;-66
2022/05/31 09:48:54;;;;;;;;;;;22.20;93.70;;;;;;4851431;29;19955;-65
2022/05/31 09:51:26;;;;;;;;;;;22.20;93.60;;;;;;4866564;29;19939;-58
2022/05/31 09:57:06;;;;;;;;;;;22.20;93.60;;;;;;4865916;29;19931;-60
2022/05/31 10:00:04;;;;;;;;;;;22.10;93.60;;;;;;4837746;29;19946;-62
2022/05/31 10:03:05;;;;;;;;;;;22.10;93.50;;;;;;4876539;29;19935;-66
2022/05/31 10:05:32;;;;;;;;;;;22.10;93.80;;;;;;4872937;29;19927;-58
2022/05/31 10:07:59;;;;;;;;;;;22.10;93.90;;;;;;4881100;29;19938;-59
2022/05/31 10:10:34;;;;;;;;;;;22.10;93.90;;;;;;4880001;29;19932;-65
2022/05/31 10:13:09;;;;;;;;;;;22.10;93.70;;;;;;4864785;29;20408;-59
2022/05/31 10:15:37;;;;;;;;;;;22.10;93.60;;;;;;4866767;29;19932;-62
2022/05/31 10:18:05;;;;;;;;;;;22.00;93.90;;;;;;4860880;29;20049;-64
2022/05/31 10:20:35;;;;;;;;;;;22.00;94.00;;;;;;4864185;29;19928;-58
2022/05/31 10:23:09;;;;;;;;;;;22.00;94.10;;;;;;4877953;29;19928;-58
2022/05/31 10:25:57;;;;;;;;;;;22.00;94.10;;;;;;4881065;29;19932;-57
2022/05/31 10:28:41;;;;;;;;;;;21.90;93.70;;;;;;4885568;29;20353;-59
2022/05/31 10:31:26;;;;;;;;;;;21.90;93.50;;;;;;4865006;29;19932;-62
2022/05/31 10:33:56;;;;;;;;;;;21.90;93.50;;;;;;4897542;29;19932;-61
2022/05/31 10:36:25;;;;;;;;;;;21.90;93.70;;;;;;4876852;29;19928;-57
2022/05/31 10:38:53;;;;;;;;;;;21.90;93.90;;;;;;4880408;29;19932;-59
2022/05/31 10:41:28;;;;;;;;;;;21.90;94.10;;;;;;4871283;29;19940;-58
2022/05/31 10:44:21;;;;;;;;;;;21.90;94.30;;;;;;4871995;29;20020;-62
2022/05/31 10:46:51;;;;;;;;;;;21.90;94.40;;;;;;4862155;29;19936;-59
2022/05/31 10:49:20;;;;;;;;;;;21.80;94.60;;;;;;4867774;29;19935;-60
2022/05/31 10:51:56;;;;;;;;;;;21.80;94.70;;;;;;4846199;29;19928;-62
2022/05/31 10:54:26;;;;;;;;;;;21.80;95.00;;;;;;4862913;29;19957;-59
2022/05/31 10:56:59;;;;;;;;;;;21.90;95.10;;;;;;4894522;29;19938;-60
2022/05/31 10:59:26;;;;;;;;;;;21.80;95.10;;;;;;4880415;29;19939;-57
2022/05/31 11:01:57;;;;;;;;;;;21.80;95.30;;;;;;4866342;29;19932;-60
2022/05/31 11:04:34;;;;;;;;;;;21.80;95.40;;;;;;4864651;29;19932;-61
2022/05/31 11:07:26;;;;;;;;;;;21.80;95.50;;;;;;4881786;29;19939;-60
2022/05/31 11:13:01;;;;;;;;;;;21.80;95.50;;;;;;4880068;29;19951;-61
2022/05/31 11:15:38;;;;;;;;;;;21.80;95.60;;;;;;4847509;29;19928;-58
2022/05/31 11:18:11;;;;;;;;;;;21.80;95.70;;;;;;4876533;29;19932;-58
2022/05/31 11:20:42;;;;;;;;;;;21.80;95.70;;;;;;4850805;29;19948;-62
2022/05/31 11:23:17;;;;;;;;;;;21.80;95.10;;;;;;4855637;29;19943;-66
2022/05/31 11:25:48;;;;;;;;;;;21.90;95.80;;;;;;4872111;29;19935;-64
2022/05/31 11:28:51;;;;;;;;;;;22.00;96.10;;;;;;4873361;29;19991;-66
2022/05/31 11:31:36;;;;;;;;;;;22.10;95.60;;;;;;4875108;29;19943;-65
2022/05/31 11:34:29;;;;;;;;;;;22.10;96.20;;;;;;4866663;29;19931;-62
2022/05/31 11:37:04;;;;;;;;;;;22.10;96.50;;;;;;4876906;29;19927;-62
2022/05/31 11:39:37;;;;;;;;;;;22.10;96.30;;;;;;4876256;29;20340;-65
2022/05/31 11:42:11;;;;;;;;;;;22.10;96.60;;;;;;4872990;29;19939;-61
2022/05/31 11:44:52;;;;;;;;;;;22.20;96.40;;;;;;4876465;29;19947;-65
2022/05/31 11:47:38;;;;;;;;;;;22.30;96.60;;;;;;4876411;29;19942;-61
2022/05/31 11:50:14;;;;;;;;;;;22.30;96.70;;;;;;4858495;29;19932;-63
2022/05/31 11:52:45;;;;;;;;;;;22.30;96.40;;;;;;4870152;29;19935;-64
2022/05/31 11:55:31;;;;;;;;;;;22.30;96.50;;;;;;4875261;29;20320;-63
2022/05/31 11:57:58;;;;;;;;;;;22.40;96.60;;;;;;4874702;29;20458;-62
2022/05/31 12:00:36;;;;;;;;;;;22.40;97.00;;;;;;4877606;29;19943;-64
2022/05/31 12:03:23;;;;;;;;;;;22.50;97.40;;;;;;4873961;29;19938;-65
2022/05/31 12:05:54;;;;;;;;;;;22.50;97.60;;;;;;4873180;29;20312;-58
2022/05/31 12:08:27;;;;;;;;;;;22.60;98.30;;;;;;4843222;29;20391;-63
2022/05/31 12:10:56;;;;;;;;;;;22.60;98.60;;;;;;4874172;29;20049;-60
2022/05/31 12:13:24;;;;;;;;;;;22.60;98.90;;;;;;4858353;29;19947;-63
2022/05/31 12:15:53;;;;;;;;;;;22.70;98.90;;;;;;4872961;29;19947;-64
2022/05/31 12:18:39;;;;;;;;;;;22.70;99.10;;;;;;4875787;29;19947;-62
2022/05/31 12:21:29;;;;;;;;;;;22.70;99.10;;;;;;4874604;29;19966;-61
2022/05/31 12:24:10;;;;;;;;;;;22.70;98.80;;;;;;4872556;29;19940;-63
2022/05/31 12:26:37;;;;;;;;;;;22.70;98.70;;;;;;4882345;29;19915;-62
2022/05/31 12:29:04;;;;;;;;;;;22.60;98.70;;;;;;4888295;29;19932;-65
2022/05/31 12:31:36;;;;;;;;;;;22.60;98.60;;;;;;4891774;29;19928;-63
2022/05/31 12:34:30;;;;;;;;;;;22.60;98.60;;;;;;4882150;29;19931;-61
2022/05/31 12:37:23;;;;;;;;;;;22.60;98.50;;;;;;4892970;29;19916;-61
2022/05/31 12:40:10;;;;;;;;;;;22.60;98.40;;;;;;4880391;29;19943;-62
2022/05/31 12:42:39;;;;;;;;;;;22.50;98.10;;;;;;4880170;29;19932;-60
2022/05/31 12:45:25;;;;;;;;;;;22.50;98.10;;;;;;4864636;29;19947;-60
2022/05/31 12:47:57;;;;;;;;;;;22.40;98.00;;;;;;4857450;29;19927;-57
2022/05/31 12:50:43;;;;;;;;;;;22.40;98.20;;;;;;4880915;29;19931;-62
2022/05/31 12:53:23;;;;;;;;;;;22.40;97.90;;;;;;4876780;29;19939;-58
2022/05/31 12:55:52;;;;;;;;;;;22.40;98.00;;;;;;4876289;29;19936;-59
2022/05/31 12:58:35;;;;;;;;;;;22.50;98.00;;;;;;4871838;29;19943;-60
2022/05/31 13:01:26;;;;;;;;;;;22.60;98.40;;;;;;4871141;29;20015;-59
2022/05/31 13:03:53;;;;;;;;;;;22.60;99.30;;;;;;4878655;29;19932;-56
2022/05/31 13:06:24;;;;;;;;;;;22.60;99.50;;;;;;4875065;29;19936;-58
2022/05/31 13:08:52;;;;;;;;;;;22.60;99.90;;;;;;4885011;29;19938;-57
2022/05/31 13:20:34;;;;;;;;;;;22.70;99.80;;;;;;4874471;29;19931;-59
2022/05/31 13:23:09;;;;;;;;;;;22.70;98.20;;;;;;4875589;29;19932;-61
2022/05/31 13:25:44;;;;;;;;;;;22.50;94.90;;;;;;4881264;29;19939;-58
2022/05/31 13:28:29;;;;;;;;;;;22.40;94.60;;;;;;4873968;29;19931;-58
2022/05/31 13:30:58;;;;;;;;;;;22.30;90.90;;;;;;4878316;29;19932;-59
2022/05/31 13:33:26;;;;;;;;;;;22.20;89.00;;;;;;4870903;29;19943;-58
2022/05/31 13:35:59;;;;;;;;;;;22.20;90.90;;;;;;4870050;29;19932;-57
2022/05/31 13:38:28;;;;;;;;;;;22.20;89.40;;;;;;4873702;29;19935;-60
2022/05/31 13:40:57;;;;;;;;;;;22.20;90.50;;;;;;4871871;29;20284;-58
2022/05/31 13:43:43;;;;;;;;;;;22.10;85.50;;;;;;4855850;29;20409;-59
2022/05/31 13:46:36;;;;;;;;;;;22.20;87.10;;;;;;4869707;29;20006;-60
2022/05/31 13:49:04;;;;;;;;;;;22.20;88.80;;;;;;4869061;29;19932;-57
2022/05/31 13:51:32;;;;;;;;;;;22.30;89.70;;;;;;4870096;29;19931;-59
2022/05/31 13:54:12;;;;;;;;;;;22.30;90.20;;;;;;4873300;29;20007;-59
2022/05/31 13:56:42;;;;;;;;;;;22.40;90.50;;;;;;4861899;29;19939;-62
2022/05/31 13:59:10;;;;;;;;;;;22.40;91.00;;;;;;4869643;29;20597;-59
2022/05/31 14:01:39;;;;;;;;;;;22.40;92.80;;;;;;4858635;29;19932;-59
2022/05/31 14:04:06;;;;;;;;;;;22.40;93.40;;;;;;4877080;29;19942;-61
2022/05/31 14:06:37;;;;;;;;;;;22.50;93.80;;;;;;4874368;29;19932;-68
2022/05/31 14:09:05;;;;;;;;;;;22.50;93.70;;;;;;4875856;29;20312;-66
2022/05/31 14:11:42;;;;;;;;;;;22.60;93.80;;;;;;4879335;29;19932;-69
2022/05/31 14:14:18;;;;;;;;;;;22.60;94.10;;;;;;4877300;29;20433;-57
2022/05/31 14:16:46;;;;;;;;;;;22.70;94.00;;;;;;4876300;29;19932;-58
2022/05/31 14:19:17;;;;;;;;;;;22.80;94.00;;;;;;4875324;29;19936;-58
2022/05/31 14:21:51;;;;;;;;;;;22.80;93.90;;;;;;4874116;29;19932;-58
2022/05/31 14:24:23;;;;;;;;;;;22.90;94.30;;;;;;4868569;29;19982;-60
2022/05/31 14:26:52;;;;;;;;;;;22.90;94.20;;;;;;4862693;29;19932;-59
2022/05/31 14:29:23;;;;;;;;;;;23.00;94.10;;;;;;4863235;29;19932;-58
2022/05/31 14:31:52;;;;;;;;;;;23.10;94.10;;;;;;4873001;29;19932;-59
2022/05/31 14:34:22;;;;;;;;;;;23.10;93.90;;;;;;4876067;29;19936;-59
2022/05/31 14:36:49;;;;;;;;;;;23.10;93.80;;;;;;4871409;29;20389;-59
2022/05/31 14:39:18;;;;;;;;;;;23.10;93.70;;;;;;4849685;29;19935;-59
2022/05/31 14:41:45;;;;;;;;;;;23.10;93.70;;;;;;4871568;29;19932;-60
2022/05/31 14:44:31;;;;;;;;;;;23.10;93.60;;;;;;4873764;29;20263;-58
2022/05/31 14:47:06;;;;;;;;;;;23.10;93.60;;;;;;4870111;29;20356;-57
2022/05/31 14:49:39;;;;;;;;;;;23.20;93.50;;;;;;4868576;29;19932;-58
2022/05/31 14:52:24;;;;;;;;;;;23.20;93.50;;;;;;4867859;29;19958;-57
2022/05/31 14:54:52;;;;;;;;;;;23.20;93.50;;;;;;4873521;29;19935;-60
2022/05/31 14:57:26;;;;;;;;;;;23.10;93.60;;;;;;4870087;29;19994;-61
2022/05/31 15:00:00;;;;;;;;;;;23.10;93.70;;;;;;4869942;29;19935;-59
2022/05/31 15:02:33;;;;;;;;;;;23.10;93.80;;;;;;4874632;29;19931;-60
2022/05/31 15:05:01;;;;;;;;;;;23.20;93.70;;;;;;4872281;29;19931;-60
2022/05/31 15:07:31;;;;;;;;;;;23.30;93.70;;;;;;4870838;29;19935;-56
2022/05/31 15:10:21;;;;;;;;;;;23.40;93.70;;;;;;4871047;29;19947;-58
2022/05/31 15:21:19;;;;;;;;;;;23.20;94.60;;;;;;4868861;29;20261;-60
2022/05/31 15:23:47;;;;;;;;;;;23.20;95.20;;;;;;4869063;29;19932;-56
2022/05/31 15:26:16;;;;;;;;;;;23.10;95.40;;;;;;4855728;29;19973;-58
2022/05/31 15:28:44;;;;;;;;;;;23.10;95.60;;;;;;4860615;29;20031;-59
2022/05/31 15:31:40;;;;;;;;;;;23.10;96.00;;;;;;4871809;29;20011;-58
2022/05/31 15:34:27;;;;;;;;;;;23.10;96.50;;;;;;4876939;29;19936;-61